Time;durP1;ratioP1;P1;durP2;ratioP2;P2;SDS_P1;SDS_P2;PMS_P1;PMS_P2;Temp;Humidity;BMP_temperature;BMP_pressure;BME280_temperature;BME280_humidity;BME280_pressure;Samples;Min_cycle;Max_cycle;Signal;HPM_P1;HPM_P2
2023/08/29 00:00:21;;;;;;;;;;;;;;;;;;5054091;28;5212;-56
2023/08/29 00:02:46;;;;;;;;;;;;;;;;;;5061402;28;4959;-56
2023/08/29 00:05:12;;;;;;;;;;;;;;;;;;5079543;28;4946;-56
2023/08/29 00:07:38;;;;;;;;;;;;;;;;;;5075220;28;1311;-56
2023/08/29 00:10:03;;;;;;;;;;;;;;;;;;5071620;28;4462;-56
2023/08/29 00:12:28;;;;;;;;;;;;;;;;;;5072182;28;4838;-56
2023/08/29 00:14:56;;;;;;;;;;;;;;;;;;5080233;28;4988;-56
2023/08/29 00:17:21;;;;;;;;;;;;;;;;;;5080197;28;4720;-56
2023/08/29 00:19:47;;;;;;;;;;;;;;;;;;5087076;28;1918;-56
2023/08/29 00:22:12;;;;;;;;;;;;;;;;;;5079609;28;4838;-56
2023/08/29 00:24:38;;;;;;;;;;;;;;;;;;5080619;28;5011;-56
2023/08/29 00:27:03;;;;;;;;;;;;;;;;;;5060632;28;5094;-56
2023/08/29 00:29:28;;;;;;;;;;;;;;;;;;5046067;28;4665;-56
2023/08/29 00:31:53;;;;;;;;;;;;;;;;;;5060330;28;5173;-56
2023/08/29 00:34:19;;;;;;;;;;;;;;;;;;5058202;28;4826;-56
2023/08/29 00:36:44;;;;;;;;;;;;;;;;;;5051551;28;5022;-56
2023/08/29 00:39:09;;;;;;;;;;;;;;;;;;5053688;28;4960;-56
2023/08/29 00:41:34;;;;;;;;;;;;;;;;;;5054545;28;4943;-57
2023/08/29 00:44:00;;;;;;;;;;;;;;;;;;5061675;28;1389;-56
2023/08/29 00:46:25;;;;;;;;;;;;;;;;;;5060215;28;4906;-56
2023/08/29 00:48:50;;;;;;;;;;;;;;;;;;5054169;28;5076;-56
2023/08/29 00:51:16;;;;;;;;;;;;;;;;;;5062810;28;4452;-56
2023/08/29 00:53:42;;;;;;;;;;;;;;;;;;5075373;28;5060;-57
2023/08/29 00:56:07;;;;;;;;;;;;;;;;;;5081247;28;5061;-55
2023/08/29 00:58:32;;;;;;;;;;;;;;;;;;5090366;28;1906;-57
2023/08/29 01:00:57;;;;;;;;;;;;;;;;;;5073037;28;4637;-56
2023/08/29 01:03:23;;;;;;;;;;;;;;;;;;5084880;28;5004;-57
2023/08/29 01:05:48;;;;;;;;;;;;;;;;;;5089972;28;5000;-57
2023/08/29 01:08:13;;;;;;;;;;;;;;;;;;5078073;28;5584;-56
2023/08/29 01:10:38;;;;;;;;;;;;;;;;;;5040057;28;3222;-56
2023/08/29 01:13:07;;;;;;;;;;;;;;;;;;5072106;28;4992;-56
2023/08/29 01:15:33;;;;;;;;;;;;;;;;;;5061149;28;5146;-56
2023/08/29 01:17:59;;;;;;;;;;;;;;;;;;5091031;28;4991;-56
2023/08/29 01:20:24;;;;;;;;;;;;;;;;;;5044337;28;5296;-56
2023/08/29 01:22:52;;;;;;;;;;;;;;;;;;5085213;28;2077;-56
2023/08/29 01:25:23;;;;;;;;;;;;;;;;;;5079618;28;5234;-56
2023/08/29 01:27:48;;;;;;;;;;;;;;;;;;5083138;28;4928;-56
2023/08/29 01:30:14;;;;;;;;;;;;;;;;;;5085203;28;5090;-56
2023/08/29 01:32:40;;;;;;;;;;;;;;;;;;5073509;28;5064;-57
2023/08/29 01:35:05;;;;;;;;;;;;;;;;;;5092583;28;1156;-56
2023/08/29 01:37:31;;;;;;;;;;;;;;;;;;5116354;27;4382;-57
2023/08/29 01:39:56;;;;;;;;;;;;;;;;;;5096762;28;5023;-56
2023/08/29 01:42:21;;;;;;;;;;;;;;;;;;5095922;28;5201;-56
2023/08/29 01:44:46;;;;;;;;;;;;;;;;;;5096506;28;4655;-56
2023/08/29 01:47:12;;;;;;;;;;;;;;;;;;5099082;28;5161;-57
2023/08/29 01:49:37;;;;;;;;;;;;;;;;;;5101070;28;1246;-56
2023/08/29 01:52:02;;;;;;;;;;;;;;;;;;5115551;27;4470;-56
2023/08/29 01:54:27;;;;;;;;;;;;;;;;;;5102229;28;4484;-56
2023/08/29 01:56:53;;;;;;;;;;;;;;;;;;5097696;28;5106;-56
2023/08/29 01:59:18;;;;;;;;;;;;;;;;;;5115791;27;5094;-57
2023/08/29 02:01:43;;;;;;;;;;;;;;;;;;5084811;28;1121;-56
2023/08/29 02:04:09;;;;;;;;;;;;;;;;;;5115186;27;4958;-57
2023/08/29 02:06:34;;;;;;;;;;;;;;;;;;5108562;28;5005;-57
2023/08/29 02:08:59;;;;;;;;;;;;;;;;;;5090815;28;5074;-57
2023/08/29 02:11:24;;;;;;;;;;;;;;;;;;5098453;28;4964;-56
2023/08/29 02:13:50;;;;;;;;;;;;;;;;;;5100485;28;3058;-56
2023/08/29 02:16:15;;;;;;;;;;;;;;;;;;5096565;28;4890;-56
2023/08/29 02:18:41;;;;;;;;;;;;;;;;;;5090984;28;5117;-56
2023/08/29 02:21:06;;;;;;;;;;;;;;;;;;5096816;28;4985;-56
2023/08/29 02:23:31;;;;;;;;;;;;;;;;;;5098441;28;5042;-56
2023/08/29 02:26:00;;;;;;;;;;;;;;;;;;5088391;28;3380;-56
2023/08/29 02:28:26;;;;;;;;;;;;;;;;;;5090591;28;4972;-56
2023/08/29 02:30:51;;;;;;;;;;;;;;;;;;5095354;28;4624;-56
2023/08/29 02:33:16;;;;;;;;;;;;;;;;;;5094226;28;5374;-56
2023/08/29 02:35:41;;;;;;;;;;;;;;;;;;5103234;28;4568;-56
2023/08/29 02:38:06;;;;;;;;;;;;;;;;;;5096937;28;4919;-53
2023/08/29 02:40:32;;;;;;;;;;;;;;;;;;5099582;28;3386;-57
2023/08/29 02:42:57;;;;;;;;;;;;;;;;;;5094389;28;5066;-56
2023/08/29 02:45:22;;;;;;;;;;;;;;;;;;5083337;28;5071;-56
2023/08/29 02:47:48;;;;;;;;;;;;;;;;;;5090257;28;4687;-56
2023/08/29 02:50:13;;;;;;;;;;;;;;;;;;5099544;28;4970;-56
2023/08/29 02:52:38;;;;;;;;;;;;;;;;;;5096839;28;1112;-56
2023/08/29 02:55:04;;;;;;;;;;;;;;;;;;5091571;28;5160;-56
2023/08/29 02:57:29;;;;;;;;;;;;;;;;;;5064485;28;5003;-56
2023/08/29 02:59:55;;;;;;;;;;;;;;;;;;5054168;28;5182;-56
2023/08/29 03:02:20;;;;;;;;;;;;;;;;;;5046581;28;4456;-56
2023/08/29 03:04:45;;;;;;;;;;;;;;;;;;5048404;28;1097;-56
2023/08/29 03:07:10;;;;;;;;;;;;;;;;;;5048616;28;4953;-57
2023/08/29 03:09:36;;;;;;;;;;;;;;;;;;5047941;28;4442;-56
2023/08/29 03:12:02;;;;;;;;;;;;;;;;;;5050949;28;4424;-56
2023/08/29 03:14:27;;;;;;;;;;;;;;;;;;5060253;28;5061;-56
2023/08/29 03:16:52;;;;;;;;;;;;;;;;;;5048637;28;1167;-56
2023/08/29 03:19:18;;;;;;;;;;;;;;;;;;5065396;28;5093;-55
2023/08/29 03:21:43;;;;;;;;;;;;;;;;;;5067349;28;4912;-56
2023/08/29 03:24:08;;;;;;;;;;;;;;;;;;5064221;28;4507;-56
2023/08/29 03:26:34;;;;;;;;;;;;;;;;;;5065590;28;5082;-56
2023/08/29 03:28:59;;;;;;;;;;;;;;;;;;5067980;28;1344;-56
2023/08/29 03:31:24;;;;;;;;;;;;;;;;;;5067608;28;5311;-56
2023/08/29 03:33:50;;;;;;;;;;;;;;;;;;5067701;28;5219;-56
2023/08/29 03:36:15;;;;;;;;;;;;;;;;;;5068111;28;4428;-55
2023/08/29 03:38:41;;;;;;;;;;;;;;;;;;5082762;28;5033;-56
2023/08/29 03:41:06;;;;;;;;;;;;;;;;;;5068209;28;1095;-56
2023/08/29 03:43:35;;;;;;;;;;;;;;;;;;5056670;28;4977;-56
2023/08/29 03:46:00;;;;;;;;;;;;;;;;;;5064802;28;5047;-56
2023/08/29 03:48:26;;;;;;;;;;;;;;;;;;5066388;28;5044;-56
2023/08/29 03:50:51;;;;;;;;;;;;;;;;;;5067563;28;4869;-55
2023/08/29 03:53:16;;;;;;;;;;;;;;;;;;5070169;28;5030;-55
2023/08/29 03:55:41;;;;;;;;;;;;;;;;;;5067342;28;1284;-55
2023/08/29 03:58:07;;;;;;;;;;;;;;;;;;5062399;28;4917;-56
2023/08/29 04:00:32;;;;;;;;;;;;;;;;;;5067021;28;5177;-55
2023/08/29 04:02:59;;;;;;;;;;;;;;;;;;5067462;28;5020;-56
2023/08/29 04:05:24;;;;;;;;;;;;;;;;;;5067458;28;4745;-56
2023/08/29 04:07:50;;;;;;;;;;;;;;;;;;5061870;28;1168;-56
2023/08/29 04:10:15;;;;;;;;;;;;;;;;;;5065687;28;5030;-55
2023/08/29 04:12:40;;;;;;;;;;;;;;;;;;5067411;28;4930;-56
2023/08/29 04:15:06;;;;;;;;;;;;;;;;;;5067238;28;5093;-56
2023/08/29 04:17:31;;;;;;;;;;;;;;;;;;5067072;28;5007;-56
2023/08/29 04:19:58;;;;;;;;;;;;;;;;;;5067299;28;1967;-56
2023/08/29 04:22:23;;;;;;;;;;;;;;;;;;5062504;28;4880;-55
2023/08/29 04:24:48;;;;;;;;;;;;;;;;;;5061203;28;5038;-57
2023/08/29 04:27:13;;;;;;;;;;;;;;;;;;5067632;28;4856;-55
2023/08/29 04:29:39;;;;;;;;;;;;;;;;;;5066984;28;5021;-55
2023/08/29 04:32:04;;;;;;;;;;;;;;;;;;5062263;28;5198;-56
2023/08/29 04:34:30;;;;;;;;;;;;;;;;;;5066842;28;5103;-56
2023/08/29 04:36:56;;;;;;;;;;;;;;;;;;5064793;28;5066;-55
2023/08/29 04:39:21;;;;;;;;;;;;;;;;;;5059825;28;4639;-55
2023/08/29 04:41:46;;;;;;;;;;;;;;;;;;5058299;28;5023;-56
2023/08/29 04:44:11;;;;;;;;;;;;;;;;;;5067047;28;4888;-55
2023/08/29 04:46:37;;;;;;;;;;;;;;;;;;5067216;28;1112;-55
2023/08/29 04:49:03;;;;;;;;;;;;;;;;;;5066646;28;5050;-55
2023/08/29 04:51:29;;;;;;;;;;;;;;;;;;5062439;28;5022;-55
2023/08/29 04:53:54;;;;;;;;;;;;;;;;;;5065426;28;4634;-55
2023/08/29 04:56:19;;;;;;;;;;;;;;;;;;5075638;28;5057;-55
2023/08/29 04:58:44;;;;;;;;;;;;;;;;;;5063818;28;1917;-55
2023/08/29 05:01:10;;;;;;;;;;;;;;;;;;5068564;28;4989;-53
2023/08/29 05:03:35;;;;;;;;;;;;;;;;;;5065758;28;4852;-56
2023/08/29 05:06:00;;;;;;;;;;;;;;;;;;5064946;28;5377;-56
2023/08/29 05:08:25;;;;;;;;;;;;;;;;;;5062456;28;5034;-56
2023/08/29 05:10:51;;;;;;;;;;;;;;;;;;5082266;28;1155;-56
2023/08/29 05:13:16;;;;;;;;;;;;;;;;;;5070801;28;5167;-57
2023/08/29 05:15:41;;;;;;;;;;;;;;;;;;5066821;28;4868;-57
2023/08/29 05:18:06;;;;;;;;;;;;;;;;;;5065645;28;5147;-56
2023/08/29 05:20:32;;;;;;;;;;;;;;;;;;5060978;28;5122;-57
2023/08/29 05:22:57;;;;;;;;;;;;;;;;;;5066427;28;1137;-56
2023/08/29 05:25:23;;;;;;;;;;;;;;;;;;5064570;28;4887;-57
2023/08/29 05:27:48;;;;;;;;;;;;;;;;;;5063603;28;4955;-54
2023/08/29 05:30:13;;;;;;;;;;;;;;;;;;5069922;28;4950;-55
2023/08/29 05:32:38;;;;;;;;;;;;;;;;;;5062259;28;5149;-55
2023/08/29 05:35:04;;;;;;;;;;;;;;;;;;5069706;28;1080;-56
2023/08/29 05:37:29;;;;;;;;;;;;;;;;;;5069394;28;5269;-55
2023/08/29 05:39:55;;;;;;;;;;;;;;;;;;5074638;28;5055;-55
2023/08/29 05:42:20;;;;;;;;;;;;;;;;;;5058329;28;5160;-55
2023/08/29 05:44:45;;;;;;;;;;;;;;;;;;5062545;28;5218;-56
2023/08/29 05:47:10;;;;;;;;;;;;;;;;;;5067369;28;5104;-56
2023/08/29 05:49:36;;;;;;;;;;;;;;;;;;5067740;28;3302;-56
2023/08/29 05:52:01;;;;;;;;;;;;;;;;;;5064597;28;5274;-59
2023/08/29 05:54:27;;;;;;;;;;;;;;;;;;5063106;28;5060;-55
2023/08/29 05:56:52;;;;;;;;;;;;;;;;;;5083137;28;5088;-56
2023/08/29 05:59:17;;;;;;;;;;;;;;;;;;5095568;28;5325;-56
2023/08/29 06:01:43;;;;;;;;;;;;;;;;;;5096285;28;1210;-56
2023/08/29 06:04:08;;;;;;;;;;;;;;;;;;5088911;28;5022;-56
2023/08/29 06:06:33;;;;;;;;;;;;;;;;;;5107062;28;5535;-56
2023/08/29 06:08:59;;;;;;;;;;;;;;;;;;5097205;28;5064;-56
2023/08/29 06:11:25;;;;;;;;;;;;;;;;;;5103050;28;5019;-56
2023/08/29 06:13:51;;;;;;;;;;;;;;;;;;5082392;28;1125;-56
2023/08/29 06:16:16;;;;;;;;;;;;;;;;;;5099786;28;4609;-56
2023/08/29 06:18:42;;;;;;;;;;;;;;;;;;5069028;28;5147;-56
2023/08/29 06:21:07;;;;;;;;;;;;;;;;;;5086812;28;5043;-56
2023/08/29 06:23:32;;;;;;;;;;;;;;;;;;5097541;28;4861;-56
2023/08/29 06:25:58;;;;;;;;;;;;;;;;;;5097208;28;3257;-55
2023/08/29 06:28:23;;;;;;;;;;;;;;;;;;5095134;28;4424;-57
2023/08/29 06:30:48;;;;;;;;;;;;;;;;;;5102605;28;4696;-55
2023/08/29 06:33:13;;;;;;;;;;;;;;;;;;5079878;28;5096;-55
2023/08/29 06:35:39;;;;;;;;;;;;;;;;;;5095240;28;5179;-56
2023/08/29 06:38:04;;;;;;;;;;;;;;;;;;5102314;28;2736;-56
2023/08/29 06:40:29;;;;;;;;;;;;;;;;;;5100218;28;5219;-56
2023/08/29 06:42:54;;;;;;;;;;;;;;;;;;5098922;28;4981;-56
2023/08/29 06:45:20;;;;;;;;;;;;;;;;;;5092449;28;4621;-56
2023/08/29 06:47:45;;;;;;;;;;;;;;;;;;5092182;28;4958;-55
2023/08/29 06:50:11;;;;;;;;;;;;;;;;;;5103680;28;4701;-57
2023/08/29 06:52:36;;;;;;;;;;;;;;;;;;5100242;28;1389;-57
2023/08/29 06:55:02;;;;;;;;;;;;;;;;;;5062921;28;4479;-59
2023/08/29 06:57:27;;;;;;;;;;;;;;;;;;5085283;28;5302;-58
2023/08/29 06:59:53;;;;;;;;;;;;;;;;;;5090545;28;4789;-58
2023/08/29 07:02:18;;;;;;;;;;;;;;;;;;5092279;28;5041;-57
2023/08/29 07:04:43;;;;;;;;;;;;;;;;;;5083362;28;1246;-58
2023/08/29 07:07:08;;;;;;;;;;;;;;;;;;5090964;28;5034;-57
2023/08/29 07:09:34;;;;;;;;;;;;;;;;;;5078246;28;5562;-55
2023/08/29 07:11:59;;;;;;;;;;;;;;;;;;5092221;28;4666;-57
2023/08/29 07:14:25;;;;;;;;;;;;;;;;;;5096387;28;5114;-57
2023/08/29 07:16:50;;;;;;;;;;;;;;;;;;5091832;28;1253;-57
2023/08/29 07:19:15;;;;;;;;;;;;;;;;;;5103722;28;5155;-57
2023/08/29 07:21:41;;;;;;;;;;;;;;;;;;5096377;28;4997;-57
2023/08/29 07:24:06;;;;;;;;;;;;;;;;;;5080162;28;5067;-57
2023/08/29 07:26:31;;;;;;;;;;;;;;;;;;5096877;28;4428;-57
2023/08/29 07:28:57;;;;;;;;;;;;;;;;;;5097991;28;1514;-57
2023/08/29 07:31:22;;;;;;;;;;;;;;;;;;5075268;28;5047;-57
2023/08/29 07:33:47;;;;;;;;;;;;;;;;;;5104664;28;4843;-57
2023/08/29 07:36:12;;;;;;;;;;;;;;;;;;5096003;28;5995;-57
2023/08/29 07:38:38;;;;;;;;;;;;;;;;;;5096285;28;4437;-57
2023/08/29 07:41:03;;;;;;;;;;;;;;;;;;5094894;28;1167;-57
2023/08/29 07:43:28;;;;;;;;;;;;;;;;;;5094713;28;4963;-56
2023/08/29 07:45:53;;;;;;;;;;;;;;;;;;5103214;28;5051;-57
2023/08/29 07:48:19;;;;;;;;;;;;;;;;;;5098094;28;4900;-56
2023/08/29 07:50:45;;;;;;;;;;;;;;;;;;5081624;28;5142;-57
2023/08/29 07:53:10;;;;;;;;;;;;;;;;;;5099998;28;5257;-57
2023/08/29 07:55:35;;;;;;;;;;;;;;;;;;5094765;28;1158;-57
2023/08/29 07:58:01;;;;;;;;;;;;;;;;;;5085008;28;4892;-57
2023/08/29 08:00:28;;;;;;;;;;;;;;;;;;5087136;28;4983;-57
2023/08/29 08:02:53;;;;;;;;;;;;;;;;;;5087301;28;5150;-57
2023/08/29 08:05:18;;;;;;;;;;;;;;;;;;5081064;28;5178;-57
2023/08/29 08:07:44;;;;;;;;;;;;;;;;;;5087621;28;1231;-56
2023/08/29 08:10:10;;;;;;;;;;;;;;;;;;5086973;28;4966;-56
2023/08/29 08:12:37;;;;;;;;;;;;;;;;;;5087376;28;4924;-57
2023/08/29 08:15:04;;;;;;;;;;;;;;;;;;5078152;28;5316;-57
2023/08/29 08:17:29;;;;;;;;;;;;;;;;;;5087536;28;4443;-57
2023/08/29 08:19:55;;;;;;;;;;;;;;;;;;5087733;28;1994;-57
2023/08/29 08:22:21;;;;;;;;;;;;;;;;;;5084553;28;4423;-56
2023/08/29 08:24:47;;;;;;;;;;;;;;;;;;5084240;28;5009;-57
2023/08/29 08:27:12;;;;;;;;;;;;;;;;;;5087159;28;5068;-57
2023/08/29 08:29:38;;;;;;;;;;;;;;;;;;5085177;28;5061;-57
2023/08/29 08:32:03;;;;;;;;;;;;;;;;;;5087079;28;5110;-57
2023/08/29 08:34:28;;;;;;;;;;;;;;;;;;5086871;28;4824;-57
2023/08/29 08:36:54;;;;;;;;;;;;;;;;;;5086739;28;4933;-57
2023/08/29 08:39:21;;;;;;;;;;;;;;;;;;5086566;28;5013;-57
2023/08/29 08:41:46;;;;;;;;;;;;;;;;;;5091025;28;4422;-57
2023/08/29 08:44:13;;;;;;;;;;;;;;;;;;5087497;28;4644;-56
2023/08/29 08:46:38;;;;;;;;;;;;;;;;;;5087365;28;1191;-57
2023/08/29 08:49:03;;;;;;;;;;;;;;;;;;5086948;28;4865;-57
2023/08/29 08:51:29;;;;;;;;;;;;;;;;;;5063045;28;4639;-57
2023/08/29 08:53:54;;;;;;;;;;;;;;;;;;5086562;28;4546;-56
2023/08/29 08:56:20;;;;;;;;;;;;;;;;;;5085552;28;5130;-56
2023/08/29 08:58:45;;;;;;;;;;;;;;;;;;5083836;28;3265;-57
2023/08/29 09:01:11;;;;;;;;;;;;;;;;;;5085795;28;5265;-56
2023/08/29 09:03:38;;;;;;;;;;;;;;;;;;5090626;28;5114;-56
2023/08/29 09:06:03;;;;;;;;;;;;;;;;;;5091559;28;4628;-56
2023/08/29 09:08:31;;;;;;;;;;;;;;;;;;5088699;28;5028;-56
2023/08/29 09:10:59;;;;;;;;;;;;;;;;;;5094479;28;1486;-56
2023/08/29 09:13:24;;;;;;;;;;;;;;;;;;5090894;28;5028;-56
2023/08/29 09:15:49;;;;;;;;;;;;;;;;;;5091138;28;4982;-55
2023/08/29 09:18:22;;;;;;;;;;;;;;;;;;5088615;28;5054;-56
2023/08/29 09:20:47;;;;;;;;;;;;;;;;;;5090899;28;5389;-55
2023/08/29 09:23:22;;;;;;;;;;;;;;;;;;5089828;28;4948;-55
2023/08/29 09:25:54;;;;;;;;;;;;;;;;;;5084496;28;1170;-56
2023/08/29 09:28:20;;;;;;;;;;;;;;;;;;5085874;28;4884;-56
2023/08/29 09:30:45;;;;;;;;;;;;;;;;;;5088958;28;4465;-58
2023/08/29 09:33:10;;;;;;;;;;;;;;;;;;5090497;28;5462;-57
2023/08/29 09:35:35;;;;;;;;;;;;;;;;;;5081207;28;5356;-56
2023/08/29 09:38:01;;;;;;;;;;;;;;;;;;5094865;28;1392;-57
2023/08/29 09:40:26;;;;;;;;;;;;;;;;;;5071698;28;4938;-56
2023/08/29 09:43:09;;;;;;;;;;;;;;;;;;5093457;28;4987;-57
2023/08/29 09:45:37;;;;;;;;;;;;;;;;;;5088914;28;4856;-56
2023/08/29 09:48:06;;;;;;;;;;;;;;;;;;5082118;28;4951;-56
2023/08/29 09:50:31;;;;;;;;;;;;;;;;;;5092289;28;4425;-56
2023/08/29 09:52:56;;;;;;;;;;;;;;;;;;5086793;28;1130;-58
2023/08/29 09:55:21;;;;;;;;;;;;;;;;;;5089332;28;4650;-57
2023/08/29 09:57:48;;;;;;;;;;;;;;;;;;5104564;28;4407;-57
2023/08/29 10:00:14;;;;;;;;;;;;;;;;;;5088428;28;5018;-57
2023/08/29 10:02:40;;;;;;;;;;;;;;;;;;5090802;28;5107;-57
2023/08/29 10:05:08;;;;;;;;;;;;;;;;;;5094621;28;1384;-55
2023/08/29 10:07:41;;;;;;;;;;;;;;;;;;5069997;28;4907;-56
2023/08/29 10:10:06;;;;;;;;;;;;;;;;;;5068836;28;5029;-56
2023/08/29 10:12:32;;;;;;;;;;;;;;;;;;5061098;28;4572;-56
2023/08/29 10:14:57;;;;;;;;;;;;;;;;;;5078553;28;4970;-56
2023/08/29 10:17:22;;;;;;;;;;;;;;;;;;5067359;28;5094;-57
2023/08/29 10:19:47;;;;;;;;;;;;;;;;;;5066348;28;1909;-55
2023/08/29 10:22:13;;;;;;;;;;;;;;;;;;5051671;28;4589;-56
2023/08/29 10:24:38;;;;;;;;;;;;;;;;;;5083165;28;4996;-56
2023/08/29 10:27:03;;;;;;;;;;;;;;;;;;5081475;28;5091;-56
2023/08/29 10:29:29;;;;;;;;;;;;;;;;;;5063471;28;5076;-56
2023/08/29 10:31:55;;;;;;;;;;;;;;;;;;5067583;28;5208;-56
2023/08/29 10:34:20;;;;;;;;;;;;;;;;;;5067469;28;4997;-56
2023/08/29 10:36:46;;;;;;;;;;;;;;;;;;5069660;28;4782;-56
2023/08/29 10:39:15;;;;;;;;;;;;;;;;;;5083457;28;5086;-56
2023/08/29 10:41:46;;;;;;;;;;;;;;;;;;5079538;28;4878;-56
2023/08/29 10:44:30;;;;;;;;;;;;;;;;;;5063166;28;5185;-56
2023/08/29 10:47:12;;;;;;;;;;;;;;;;;;5056795;28;3446;-56
2023/08/29 10:49:41;;;;;;;;;;;;;;;;;;5069149;28;4509;-56
2023/08/29 10:52:08;;;;;;;;;;;;;;;;;;5068574;28;4501;-56
2023/08/29 10:54:33;;;;;;;;;;;;;;;;;;5066956;28;5004;-55
2023/08/29 10:56:58;;;;;;;;;;;;;;;;;;5067192;28;5083;-56
2023/08/29 10:59:27;;;;;;;;;;;;;;;;;;5070393;28;5028;-56
2023/08/29 11:01:52;;;;;;;;;;;;;;;;;;5089930;28;2297;-56
2023/08/29 11:04:21;;;;;;;;;;;;;;;;;;5095118;28;4934;-56
2023/08/29 11:06:49;;;;;;;;;;;;;;;;;;5084489;28;4541;-56
2023/08/29 11:09:15;;;;;;;;;;;;;;;;;;5069740;28;5099;-56
2023/08/29 11:11:40;;;;;;;;;;;;;;;;;;5084959;28;5222;-56
2023/08/29 11:14:08;;;;;;;;;;;;;;;;;;5078732;28;1197;-56
2023/08/29 11:16:35;;;;;;;;;;;;;;;;;;5067743;28;4999;-56
2023/08/29 11:19:09;;;;;;;;;;;;;;;;;;5063681;28;5125;-56
2023/08/29 11:21:35;;;;;;;;;;;;;;;;;;5066925;28;5065;-57
2023/08/29 11:24:00;;;;;;;;;;;;;;;;;;5058179;28;5509;-55
2023/08/29 11:26:25;;;;;;;;;;;;;;;;;;5067190;28;5038;-56
2023/08/29 11:28:50;;;;;;;;;;;;;;;;;;5057174;28;1388;-56
2023/08/29 11:31:18;;;;;;;;;;;;;;;;;;5064587;28;5165;-56
2023/08/29 11:33:43;;;;;;;;;;;;;;;;;;5074769;28;5072;-56
2023/08/29 11:36:09;;;;;;;;;;;;;;;;;;5067609;28;4476;-55
2023/08/29 11:38:35;;;;;;;;;;;;;;;;;;5063580;28;5264;-58
2023/08/29 11:41:00;;;;;;;;;;;;;;;;;;5056086;28;3291;-58
2023/08/29 11:43:26;;;;;;;;;;;;;;;;;;5082894;28;5115;-57
2023/08/29 11:45:53;;;;;;;;;;;;;;;;;;5072197;28;4939;-57
2023/08/29 11:48:22;;;;;;;;;;;;;;;;;;5066371;28;4999;-57
2023/08/29 11:50:47;;;;;;;;;;;;;;;;;;5065568;28;5248;-57
2023/08/29 11:53:20;;;;;;;;;;;;;;;;;;5062897;28;5067;-57
2023/08/29 11:55:45;;;;;;;;;;;;;;;;;;5070479;28;3349;-58
2023/08/29 11:58:10;;;;;;;;;;;;;;;;;;5077605;28;5058;-58
2023/08/29 12:00:37;;;;;;;;;;;;;;;;;;5086947;28;5054;-57
2023/08/29 12:03:02;;;;;;;;;;;;;;;;;;5087584;28;5010;-58
2023/08/29 12:05:28;;;;;;;;;;;;;;;;;;5094070;28;5166;-58
2023/08/29 12:07:53;;;;;;;;;;;;;;;;;;5095025;28;3291;-57
2023/08/29 12:10:19;;;;;;;;;;;;;;;;;;5082705;28;5091;-58
2023/08/29 12:12:44;;;;;;;;;;;;;;;;;;5083407;28;5104;-56
2023/08/29 12:15:15;;;;;;;;;;;;;;;;;;5086867;28;5009;-57
2023/08/29 12:17:42;;;;;;;;;;;;;;;;;;5085510;28;5076;-57
2023/08/29 12:20:13;;;;;;;;;;;;;;;;;;5086596;28;4614;-58
2023/08/29 12:22:47;;;;;;;;;;;;;;;;;;5082163;28;1246;-58
2023/08/29 12:25:13;;;;;;;;;;;;;;;;;;5077334;28;4911;-57
2023/08/29 12:27:39;;;;;;;;;;;;;;;;;;5079044;28;4807;-53
2023/08/29 12:30:06;;;;;;;;;;;;;;;;;;5076759;28;4819;-62
2023/08/29 12:32:31;;;;;;;;;;;;;;;;;;5077762;28;5105;-62
2023/08/29 12:34:56;;;;;;;;;;;;;;;;;;5081197;28;1112;-60
2023/08/29 12:37:22;;;;;;;;;;;;;;;;;;5081575;28;4608;-63
2023/08/29 12:39:48;;;;;;;;;;;;;;;;;;5082434;28;4681;-64
2023/08/29 12:42:13;;;;;;;;;;;;;;;;;;5086733;28;4428;-63
2023/08/29 12:44:38;;;;;;;;;;;;;;;;;;5081113;28;5044;-65
2023/08/29 12:47:04;;;;;;;;;;;;;;;;;;5067126;28;1065;-64
2023/08/29 12:49:29;;;;;;;;;;;;;;;;;;5047829;28;5067;-65
2023/08/29 12:51:55;;;;;;;;;;;;;;;;;;5081849;28;5859;-64
2023/08/29 12:54:20;;;;;;;;;;;;;;;;;;5062837;28;5228;-65
2023/08/29 12:56:46;;;;;;;;;;;;;;;;;;5055809;28;4664;-66
2023/08/29 12:59:11;;;;;;;;;;;;;;;;;;5048437;28;4488;-65
2023/08/29 13:01:36;;;;;;;;;;;;;;;;;;5041727;28;1128;-65
2023/08/29 13:04:02;;;;;;;;;;;;;;;;;;5045282;28;4939;-65
2023/08/29 13:06:29;;;;;;;;;;;;;;;;;;5040272;28;5117;-62
2023/08/29 13:08:54;;;;;;;;;;;;;;;;;;5042753;28;5257;-56
2023/08/29 13:11:19;;;;;;;;;;;;;;;;;;5037881;28;5187;-55
2023/08/29 13:13:45;;;;;;;;;;;;;;;;;;5057752;28;3241;-63
2023/08/29 13:16:11;;;;;;;;;;;;;;;;;;5042614;28;5095;-63
2023/08/29 13:18:36;;;;;;;;;;;;;;;;;;5043722;28;4841;-61
2023/08/29 13:21:02;;;;;;;;;;;;;;;;;;5057633;28;5037;-66
2023/08/29 13:23:27;;;;;;;;;;;;;;;;;;5084359;28;5157;-63
2023/08/29 13:25:52;;;;;;;;;;;;;;;;;;5083998;28;1329;-62
2023/08/29 13:28:17;;;;;;;;;;;;;;;;;;5081906;28;4931;-62
2023/08/29 13:30:43;;;;;;;;;;;;;;;;;;5077290;28;5123;-61
2023/08/29 13:33:08;;;;;;;;;;;;;;;;;;5083627;28;5171;-66
2023/08/29 13:35:33;;;;;;;;;;;;;;;;;;5087260;28;5374;-64
2023/08/29 13:37:58;;;;;;;;;;;;;;;;;;5085379;28;1257;-63
2023/08/29 13:40:24;;;;;;;;;;;;;;;;;;5084156;28;4625;-62
2023/08/29 13:42:52;;;;;;;;;;;;;;;;;;5085119;28;4621;-60
2023/08/29 13:45:17;;;;;;;;;;;;;;;;;;5082884;28;5172;-64
2023/08/29 13:47:42;;;;;;;;;;;;;;;;;;5063326;28;5159;-60
2023/08/29 13:50:08;;;;;;;;;;;;;;;;;;5087021;28;5282;-60
2023/08/29 13:52:34;;;;;;;;;;;;;;;;;;5088907;28;1123;-59
2023/08/29 13:55:00;;;;;;;;;;;;;;;;;;5091926;28;5232;-59
2023/08/29 13:57:25;;;;;;;;;;;;;;;;;;5040426;28;4698;-60
2023/08/29 13:59:50;;;;;;;;;;;;;;;;;;5046612;28;5006;-59
2023/08/29 14:02:15;;;;;;;;;;;;;;;;;;5047093;28;5108;-60
2023/08/29 14:04:41;;;;;;;;;;;;;;;;;;5048306;28;1547;-61
2023/08/29 14:07:06;;;;;;;;;;;;;;;;;;5049263;28;5926;-61
2023/08/29 14:09:31;;;;;;;;;;;;;;;;;;5048522;28;4950;-62
2023/08/29 14:11:56;;;;;;;;;;;;;;;;;;5047740;28;5089;-62
2023/08/29 14:14:24;;;;;;;;;;;;;;;;;;5047398;28;5104;-61
2023/08/29 14:16:49;;;;;;;;;;;;;;;;;;5061850;28;3228;-61
2023/08/29 14:19:18;;;;;;;;;;;;;;;;;;5062893;28;5133;-61
2023/08/29 14:21:44;;;;;;;;;;;;;;;;;;5068789;28;6253;-64
2023/08/29 14:24:09;;;;;;;;;;;;;;;;;;5063967;28;4623;-64
2023/08/29 14:26:34;;;;;;;;;;;;;;;;;;5064438;28;4875;-64
2023/08/29 14:28:59;;;;;;;;;;;;;;;;;;5044762;28;2356;-63
2023/08/29 14:31:25;;;;;;;;;;;;;;;;;;5060242;28;4976;-62
2023/08/29 14:33:50;;;;;;;;;;;;;;;;;;5060921;28;5064;-62
2023/08/29 14:36:15;;;;;;;;;;;;;;;;;;5021323;28;5739;-60
2023/08/29 14:38:41;;;;;;;;;;;;;;;;;;5045725;28;5053;-61
2023/08/29 14:41:07;;;;;;;;;;;;;;;;;;5044116;28;3330;-60
2023/08/29 14:43:32;;;;;;;;;;;;;;;;;;5064636;28;5080;-60
2023/08/29 14:45:59;;;;;;;;;;;;;;;;;;5044445;28;5100;-62
2023/08/29 14:48:24;;;;;;;;;;;;;;;;;;5055482;28;4989;-62
2023/08/29 14:50:49;;;;;;;;;;;;;;;;;;5040480;28;5044;-62
2023/08/29 14:53:15;;;;;;;;;;;;;;;;;;5047934;28;5277;-65
2023/08/29 14:55:40;;;;;;;;;;;;;;;;;;5048787;28;3262;-63
2023/08/29 14:58:05;;;;;;;;;;;;;;;;;;5044706;28;4980;-60
2023/08/29 15:00:31;;;;;;;;;;;;;;;;;;5042859;28;5163;-58
2023/08/29 15:02:56;;;;;;;;;;;;;;;;;;5052413;28;5139;-58
2023/08/29 15:05:21;;;;;;;;;;;;;;;;;;5046626;28;5912;-58
2023/08/29 15:07:46;;;;;;;;;;;;;;;;;;5063789;28;1361;-58
2023/08/29 15:10:12;;;;;;;;;;;;;;;;;;5066504;28;4992;-58
2023/08/29 15:12:37;;;;;;;;;;;;;;;;;;5056105;28;5109;-56
2023/08/29 15:15:04;;;;;;;;;;;;;;;;;;5059034;28;5087;-57
2023/08/29 15:17:29;;;;;;;;;;;;;;;;;;5047542;28;4979;-56
2023/08/29 15:19:55;;;;;;;;;;;;;;;;;;5044788;28;3321;-57
2023/08/29 15:22:20;;;;;;;;;;;;;;;;;;5044420;28;4876;-57
2023/08/29 15:24:46;;;;;;;;;;;;;;;;;;5018343;28;4518;-56
2023/08/29 15:27:11;;;;;;;;;;;;;;;;;;5037092;28;5003;-57
2023/08/29 15:29:36;;;;;;;;;;;;;;;;;;5036011;28;4719;-57
2023/08/29 15:32:01;;;;;;;;;;;;;;;;;;5042442;28;5026;-57
2023/08/29 15:34:28;;;;;;;;;;;;;;;;;;5064106;28;4521;-57
2023/08/29 15:36:55;;;;;;;;;;;;;;;;;;5064560;28;5226;-56
2023/08/29 15:39:20;;;;;;;;;;;;;;;;;;5055637;28;5100;-56
2023/08/29 15:41:46;;;;;;;;;;;;;;;;;;5060003;28;5009;-56
2023/08/29 15:44:11;;;;;;;;;;;;;;;;;;5064031;28;5097;-58
2023/08/29 15:46:36;;;;;;;;;;;;;;;;;;5040744;28;3350;-57
2023/08/29 15:49:01;;;;;;;;;;;;;;;;;;5059312;28;5123;-57
2023/08/29 15:51:27;;;;;;;;;;;;;;;;;;5058035;28;5129;-57
2023/08/29 15:53:52;;;;;;;;;;;;;;;;;;5045975;28;4526;-57
2023/08/29 15:56:18;;;;;;;;;;;;;;;;;;5042377;28;5079;-57
2023/08/29 15:58:43;;;;;;;;;;;;;;;;;;5039425;28;3285;-63
2023/08/29 16:01:10;;;;;;;;;;;;;;;;;;5053384;28;5142;-62
2023/08/29 16:03:35;;;;;;;;;;;;;;;;;;5055057;28;5257;-61
2023/08/29 16:06:00;;;;;;;;;;;;;;;;;;5052005;28;5138;-61
2023/08/29 16:08:26;;;;;;;;;;;;;;;;;;5063662;28;5054;-62
2023/08/29 16:10:51;;;;;;;;;;;;;;;;;;5071715;28;3323;-62
2023/08/29 16:13:17;;;;;;;;;;;;;;;;;;5051315;28;4956;-63
2023/08/29 16:15:44;;;;;;;;;;;;;;;;;;5048964;28;4971;-61
2023/08/29 16:18:09;;;;;;;;;;;;;;;;;;5051478;28;4458;-60
2023/08/29 16:20:34;;;;;;;;;;;;;;;;;;5056001;28;4559;-62
2023/08/29 16:23:00;;;;;;;;;;;;;;;;;;5047303;28;3275;-61
2023/08/29 16:25:26;;;;;;;;;;;;;;;;;;5047835;28;4992;-60
2023/08/29 16:27:51;;;;;;;;;;;;;;;;;;5052225;28;4964;-60
2023/08/29 16:30:16;;;;;;;;;;;;;;;;;;5045668;28;5911;-60
2023/08/29 16:32:42;;;;;;;;;;;;;;;;;;5047598;28;5181;-60
2023/08/29 16:35:07;;;;;;;;;;;;;;;;;;5050373;28;5073;-60
2023/08/29 16:37:34;;;;;;;;;;;;;;;;;;5048340;28;3481;-62
2023/08/29 16:40:00;;;;;;;;;;;;;;;;;;5056781;28;5371;-60
2023/08/29 16:42:25;;;;;;;;;;;;;;;;;;5062824;28;4845;-62
2023/08/29 16:44:50;;;;;;;;;;;;;;;;;;5056171;28;4957;-61
2023/08/29 16:47:16;;;;;;;;;;;;;;;;;;5044767;28;5058;-59
2023/08/29 16:49:41;;;;;;;;;;;;;;;;;;5055500;28;3308;-59
2023/08/29 16:52:06;;;;;;;;;;;;;;;;;;5045934;28;5067;-61